createdAt,value
2017-10-18T00:00:51.013Z,0
2017-10-18T00:01:52.053Z,0
2017-10-18T00:02:52.844Z,0
2017-10-18T00:03:53.577Z,0
2017-10-18T00:04:54.354Z,0
2017-10-18T00:05:55.182Z,0
2017-10-18T00:06:55.917Z,0
2017-10-18T00:07:56.735Z,0
2017-10-18T00:08:57.463Z,0
2017-10-18T00:09:58.263Z,0
2017-10-18T00:10:58.993Z,0
2017-10-18T00:12:00.034Z,0
2017-10-18T00:13:00.833Z,0
2017-10-18T00:14:01.578Z,0
2017-10-18T00:15:02.360Z,0
2017-10-18T00:16:03.097Z,0
2017-10-18T00:17:03.823Z,0
2017-10-18T00:18:04.622Z,0
2017-10-18T00:19:05.362Z,0
2017-10-18T00:20:06.111Z,0
2017-10-18T00:21:06.849Z,0
2017-10-18T00:22:07.694Z,0
2017-10-18T00:23:08.427Z,0
2017-10-18T00:24:09.180Z,0
2017-10-18T00:25:09.892Z,0
2017-10-18T00:26:10.635Z,0
2017-10-18T00:27:11.493Z,0
2017-10-18T00:28:12.222Z,0
2017-10-18T00:29:13.038Z,0
2017-10-18T00:30:13.842Z,0
2017-10-18T00:31:14.560Z,0
2017-10-18T00:32:15.292Z,0
2017-10-18T00:33:16.022Z,0
2017-10-18T00:34:16.764Z,0
2017-10-18T00:35:17.494Z,0
2017-10-18T00:36:18.314Z,0
2017-10-18T00:37:19.411Z,0
2017-10-18T00:38:20.143Z,0
2017-10-18T00:39:20.964Z,0
2017-10-18T00:40:21.704Z,0
2017-10-18T00:41:22.482Z,0
2017-10-18T00:42:23.213Z,0
2017-10-18T00:43:23.941Z,0
2017-10-18T00:44:24.727Z,0
2017-10-18T00:45:25.473Z,0
2017-10-18T00:46:26.242Z,0
2017-10-18T00:47:27.092Z,0
2017-10-18T00:48:27.860Z,0
2017-10-18T00:49:28.592Z,0
2017-10-18T00:50:29.322Z,0
2017-10-18T00:51:30.055Z,0
2017-10-18T00:52:31.177Z,0
2017-10-18T00:53:31.972Z,0
2017-10-18T00:54:32.702Z,0
2017-10-18T00:55:33.429Z,0
2017-10-18T00:56:34.165Z,0
2017-10-18T00:57:35.012Z,0
2017-10-18T00:58:35.747Z,0
2017-10-18T00:59:36.528Z,0
2017-10-18T01:00:37.265Z,0
2017-10-18T01:01:38.062Z,0
2017-10-18T01:02:39.103Z,0
2017-10-18T01:03:39.846Z,0
2017-10-18T01:04:40.643Z,0
2017-10-18T01:05:41.372Z,0
2017-10-18T01:06:42.102Z,0
2017-10-18T01:07:42.944Z,0
2017-10-18T01:08:43.749Z,0
2017-10-18T01:09:44.578Z,0
2017-10-18T01:10:45.362Z,0
2017-10-18T01:11:46.094Z,0
2017-10-18T01:12:47.007Z,0
2017-10-18T01:13:47.803Z,0
2017-10-18T01:14:48.593Z,0
2017-10-18T01:15:49.401Z,0
2017-10-18T01:16:50.143Z,0
2017-10-18T01:17:51.329Z,0
2017-10-18T01:18:52.067Z,0
2017-10-18T01:19:52.803Z,0
2017-10-18T01:20:53.543Z,0
2017-10-18T01:21:54.358Z,0
2017-10-18T01:22:55.163Z,0
2017-10-18T01:23:55.960Z,0
2017-10-18T01:24:56.693Z,0
2017-10-18T01:25:57.423Z,0
2017-10-18T01:26:58.146Z,0
2017-10-18T01:27:58.883Z,0
2017-10-18T01:28:59.606Z,0
2017-10-18T01:30:00.394Z,0
2017-10-18T01:31:01.204Z,0
2017-10-18T01:32:02.007Z,0
2017-10-18T01:33:02.819Z,0
2017-10-18T01:34:03.543Z,0
2017-10-18T01:35:04.386Z,0
2017-10-18T01:36:05.153Z,0
2017-10-18T01:37:05.962Z,0
2017-10-18T01:38:06.694Z,0
2017-10-18T01:39:07.432Z,0
2017-10-18T01:40:08.570Z,0
2017-10-18T01:41:09.364Z,0
2017-10-18T01:42:10.102Z,0
2017-10-18T01:43:10.835Z,0
2017-10-18T01:44:11.575Z,0
2017-10-18T01:45:12.753Z,0
2017-10-18T01:46:13.473Z,0
2017-10-18T01:47:14.212Z,0
2017-10-18T01:48:14.952Z,0
2017-10-18T01:49:15.700Z,0
2017-10-18T01:50:16.472Z,0
2017-10-18T01:51:17.212Z,0
2017-10-18T01:52:17.952Z,0
2017-10-18T01:53:18.702Z,0
2017-10-18T01:54:19.439Z,0
2017-10-18T01:55:20.948Z,0
2017-10-18T01:56:21.695Z,0
2017-10-18T01:57:22.430Z,0
2017-10-18T01:59:37.445Z,0
2017-10-18T02:00:38.307Z,0
2017-10-18T02:01:39.045Z,0
2017-10-18T02:02:39.854Z,0
2017-10-18T02:03:40.673Z,0
2017-10-18T02:04:41.434Z,0
2017-10-18T02:05:42.206Z,0
2017-10-18T02:06:43.001Z,0
2017-10-18T02:07:43.689Z,0
2017-10-18T02:08:44.427Z,0
2017-10-18T02:09:45.203Z,0
2017-10-18T02:10:46.058Z,0
2017-10-18T02:11:46.839Z,0
2017-10-18T02:12:47.639Z,0
2017-10-18T02:13:48.359Z,0
2017-10-18T02:14:49.104Z,0
2017-10-18T02:15:49.889Z,0
2017-10-18T02:16:50.630Z,0
2017-10-18T02:17:51.420Z,0
2017-10-18T02:18:52.154Z,0
2017-10-18T02:19:52.954Z,0
2017-10-18T02:20:53.793Z,0
2017-10-18T02:21:54.506Z,0
2017-10-18T02:22:55.320Z,0
2017-10-18T02:23:55.987Z,0
2017-10-18T02:24:56.720Z,0
2017-10-18T02:25:57.514Z,0
2017-10-18T02:26:58.259Z,0
2017-10-18T02:27:58.989Z,0
2017-10-18T02:28:59.787Z,0
2017-10-18T02:30:00.548Z,0
2017-10-18T02:31:01.387Z,0
2017-10-18T02:32:02.123Z,0
2017-10-18T02:33:02.857Z,0
2017-10-18T02:34:03.586Z,0
2017-10-18T02:35:04.331Z,0
2017-10-18T02:36:05.157Z,0
2017-10-18T02:37:05.889Z,0
2017-10-18T02:38:06.683Z,0
2017-10-18T02:39:07.487Z,0
2017-10-18T02:40:08.228Z,0
2017-10-18T02:41:09.386Z,0
2017-10-18T02:42:10.118Z,0
2017-10-18T02:43:10.852Z,0
2017-10-18T02:44:11.650Z,0
2017-10-18T02:45:12.411Z,0
2017-10-18T02:46:13.237Z,0
2017-10-18T02:47:13.971Z,0
2017-10-18T02:48:14.804Z,0
2017-10-18T02:49:15.580Z,0
2017-10-18T02:50:16.385Z,0
2017-10-18T02:51:17.166Z,0
2017-10-18T02:52:17.910Z,0
2017-10-18T02:53:18.638Z,0
2017-10-18T02:54:19.383Z,0
2017-10-18T02:55:20.190Z,0
2017-10-18T02:56:21.392Z,0
2017-10-18T02:57:22.192Z,0
2017-10-18T02:58:23.013Z,0
2017-10-18T02:59:23.820Z,0
2017-10-18T03:00:24.558Z,0
2017-10-18T03:01:26.060Z,0
2017-10-18T03:02:26.811Z,0
2017-10-18T03:03:27.534Z,0
2017-10-18T03:04:28.350Z,0
2017-10-18T03:05:29.076Z,0
2017-10-18T03:06:30.171Z,0
2017-10-18T03:07:30.932Z,0
2017-10-18T03:08:31.677Z,0
2017-10-18T03:09:32.411Z,0
2017-10-18T03:10:33.190Z,0
2017-10-18T03:11:33.922Z,0
2017-10-18T03:12:35.140Z,0
2017-10-18T03:13:35.932Z,0
2017-10-18T03:14:36.681Z,0
2017-10-18T03:15:37.512Z,0
2017-10-18T03:16:38.252Z,0
2017-10-18T03:17:39.030Z,0
2017-10-18T03:18:39.856Z,0
2017-10-18T03:19:40.620Z,0
2017-10-18T03:20:41.401Z,0
2017-10-18T03:21:42.125Z,0
2017-10-18T03:22:42.963Z,0
2017-10-18T03:23:43.688Z,0
2017-10-18T03:24:44.415Z,0
2017-10-18T03:25:45.150Z,0
2017-10-18T03:26:45.885Z,0
2017-10-18T03:27:46.659Z,0
2017-10-18T03:28:47.432Z,0
2017-10-18T03:29:48.230Z,0
2017-10-18T03:30:49.042Z,0
2017-10-18T03:31:49.779Z,0
2017-10-18T03:32:50.590Z,0
2017-10-18T03:33:51.317Z,0
2017-10-18T03:34:52.061Z,0
2017-10-18T03:35:52.787Z,0
2017-10-18T03:36:53.528Z,0
2017-10-18T03:37:54.574Z,0
2017-10-18T03:38:55.381Z,0
2017-10-18T03:39:56.125Z,0
2017-10-18T03:40:56.852Z,0
2017-10-18T03:41:57.669Z,0
2017-10-18T03:42:58.481Z,0
2017-10-18T03:43:59.207Z,0
2017-10-18T03:44:59.967Z,0
2017-10-18T03:46:00.752Z,0
2017-10-18T03:47:01.487Z,0
2017-10-18T03:48:02.531Z,0
2017-10-18T03:49:03.271Z,0
2017-10-18T03:50:04.004Z,0
2017-10-18T03:51:04.820Z,0
2017-10-18T03:52:05.562Z,0
2017-10-18T03:53:06.347Z,0
2017-10-18T03:54:07.171Z,0
2017-10-18T03:55:07.903Z,0
2017-10-18T03:56:08.633Z,0
2017-10-18T03:57:09.373Z,0
2017-10-18T03:58:10.231Z,0
2017-10-18T03:59:10.972Z,0
2017-10-18T04:00:11.701Z,0
2017-10-18T04:01:12.447Z,0
2017-10-18T04:02:13.247Z,0
2017-10-18T04:03:14.142Z,0
2017-10-18T04:04:14.930Z,0
2017-10-18T04:05:15.669Z,0
2017-10-18T04:06:16.467Z,0
2017-10-18T04:07:17.257Z,0
2017-10-18T04:08:18.093Z,0
2017-10-18T04:09:18.898Z,0
2017-10-18T04:10:19.626Z,0
2017-10-18T04:11:20.370Z,0
2017-10-18T04:12:21.170Z,0
2017-10-18T04:13:22.318Z,0
2017-10-18T04:14:23.069Z,0
2017-10-18T04:15:23.809Z,0
2017-10-18T04:16:24.597Z,0
2017-10-18T04:17:25.331Z,0
2017-10-18T04:18:26.360Z,0
2017-10-18T04:19:27.088Z,0
2017-10-18T04:20:27.819Z,0
2017-10-18T04:21:28.641Z,0
2017-10-18T04:22:29.376Z,0
2017-10-18T04:23:30.211Z,0
2017-10-18T04:24:30.951Z,0
2017-10-18T04:25:31.737Z,0
2017-10-18T04:26:32.495Z,0
2017-10-18T04:27:33.284Z,0
2017-10-18T04:28:34.129Z,0
2017-10-18T04:29:34.954Z,0
2017-10-18T04:30:35.756Z,0
2017-10-18T04:31:36.561Z,0
2017-10-18T04:32:37.299Z,0
2017-10-18T04:33:38.136Z,0
2017-10-18T04:34:38.927Z,0
2017-10-18T04:35:39.668Z,0
2017-10-18T04:36:40.414Z,0
2017-10-18T04:37:41.187Z,0
2017-10-18T04:38:41.958Z,0
2017-10-18T04:39:42.691Z,0
2017-10-18T04:40:43.419Z,0
2017-10-18T04:41:44.151Z,0
2017-10-18T04:42:44.897Z,0
2017-10-18T04:43:45.751Z,0
2017-10-18T04:44:46.487Z,0
2017-10-18T04:45:47.217Z,0
2017-10-18T04:46:47.966Z,0
2017-10-18T04:47:48.709Z,0
2017-10-18T04:48:49.602Z,0
2017-10-18T04:49:50.418Z,0
2017-10-18T04:50:51.147Z,0
2017-10-18T04:51:51.947Z,0
2017-10-18T04:52:52.737Z,0
2017-10-18T04:53:53.520Z,0
2017-10-18T04:54:54.272Z,0
2017-10-18T04:55:55.100Z,0
2017-10-18T04:56:55.827Z,0
2017-10-18T04:57:56.566Z,0
2017-10-18T04:58:57.358Z,0
2017-10-18T04:59:58.098Z,0
2017-10-18T05:00:58.847Z,0
2017-10-18T05:01:59.598Z,0
2017-10-18T05:03:00.343Z,0
2017-10-18T05:04:01.152Z,0
2017-10-18T05:05:01.901Z,0
2017-10-18T05:06:02.658Z,0
2017-10-18T05:07:03.387Z,0
2017-10-18T05:08:04.123Z,0
2017-10-18T05:09:04.908Z,0
2017-10-18T05:10:05.752Z,0
2017-10-18T05:11:06.501Z,0
2017-10-18T05:12:07.242Z,0
2017-10-18T05:13:08.061Z,0
2017-10-18T05:14:08.792Z,0
2017-10-18T05:15:09.519Z,0
2017-10-18T05:16:10.265Z,0
2017-10-18T05:17:11.101Z,0
2017-10-18T05:18:11.844Z,0
2017-10-18T05:19:12.652Z,0
2017-10-18T05:20:13.392Z,0
2017-10-18T05:21:14.188Z,0
2017-10-18T05:22:15.243Z,0
2017-10-18T05:23:15.959Z,0
2017-10-18T05:24:16.785Z,4
2017-10-18T05:25:17.597Z,4
2017-10-18T05:26:18.320Z,0
2017-10-18T05:27:19.190Z,4
2017-10-18T05:28:19.922Z,4
2017-10-18T05:29:21.415Z,4
2017-10-18T05:30:22.154Z,4
2017-10-18T05:31:22.952Z,8
2017-10-18T05:32:23.701Z,8
2017-10-18T05:33:24.443Z,12
2017-10-18T05:34:25.688Z,16
2017-10-18T05:35:26.428Z,16
2017-10-18T05:36:27.158Z,16
2017-10-18T05:37:27.888Z,24
2017-10-18T05:38:28.701Z,28
2017-10-18T05:39:29.550Z,36
2017-10-18T05:40:30.287Z,40
2017-10-18T05:41:31.022Z,48
2017-10-18T05:42:31.834Z,56
2017-10-18T05:43:32.581Z,64
2017-10-18T05:44:33.334Z,68
2017-10-18T05:45:34.107Z,76
2017-10-18T05:46:34.853Z,88
2017-10-18T05:47:35.578Z,96
2017-10-18T05:48:36.317Z,108
2017-10-18T05:49:37.098Z,120
2017-10-18T05:50:37.904Z,136
2017-10-18T05:51:38.646Z,160
2017-10-18T05:52:39.404Z,184
2017-10-18T05:53:40.130Z,204
2017-10-18T05:54:40.854Z,228
2017-10-18T05:55:41.667Z,248
2017-10-18T05:56:43.134Z,272
2017-10-18T05:57:43.975Z,308
2017-10-18T05:58:44.771Z,340
2017-10-18T05:59:45.502Z,372
2017-10-18T06:00:46.268Z,412
2017-10-18T06:01:47.087Z,428
2017-10-18T06:02:48.888Z,480
2017-10-18T06:03:50.002Z,488
2017-10-18T06:04:50.748Z,524
2017-10-18T06:05:51.478Z,536
2017-10-18T06:06:52.235Z,564
2017-10-18T06:07:53.009Z,596
2017-10-18T06:08:53.737Z,656
2017-10-18T06:09:54.585Z,700
2017-10-18T06:10:55.321Z,776
2017-10-18T06:11:56.046Z,860
2017-10-18T06:12:56.779Z,896
2017-10-18T06:13:57.526Z,960
2017-10-18T06:14:58.709Z,1004
2017-10-18T06:15:59.523Z,1068
2017-10-18T06:17:00.261Z,1128
2017-10-18T06:18:01.012Z,1196
2017-10-18T06:19:01.804Z,1212
2017-10-18T06:20:02.882Z,1272
2017-10-18T06:21:03.620Z,1256
2017-10-18T06:22:04.369Z,1292
2017-10-18T06:23:05.112Z,1292
2017-10-18T06:24:05.862Z,1236
2017-10-18T06:25:06.647Z,1308
2017-10-18T06:26:07.407Z,1344
2017-10-18T06:27:08.185Z,1408
2017-10-18T06:28:08.927Z,1460
2017-10-18T06:29:09.668Z,1496
2017-10-18T06:30:10.788Z,1552
2017-10-18T06:31:11.531Z,1600
2017-10-18T06:32:12.264Z,1708
2017-10-18T06:33:13.071Z,1776
2017-10-18T06:34:13.807Z,1820
2017-10-18T06:35:14.908Z,1836
2017-10-18T06:36:15.652Z,1920
2017-10-18T06:37:16.395Z,1900
2017-10-18T06:38:17.190Z,1960
2017-10-18T06:39:17.988Z,1964
2017-10-18T06:40:18.782Z,2080
2017-10-18T06:41:19.521Z,2100
2017-10-18T06:42:20.265Z,2096
2017-10-18T06:43:21.061Z,2144
2017-10-18T06:44:21.789Z,2248
2017-10-18T06:45:22.581Z,2288
2017-10-18T06:46:23.325Z,2444
2017-10-18T06:47:24.101Z,2660
2017-10-18T06:48:24.841Z,2636
2017-10-18T06:49:25.590Z,2728
2017-10-18T06:50:26.751Z,2692
2017-10-18T06:51:27.540Z,2728
2017-10-18T06:52:28.287Z,2820
2017-10-18T06:53:29.020Z,2964
2017-10-18T06:54:29.828Z,3060
2017-10-18T06:55:30.738Z,3148
2017-10-18T06:56:31.480Z,3172
2017-10-18T06:57:32.217Z,3232
2017-10-18T06:58:32.958Z,3228
2017-10-18T06:59:33.758Z,3352
2017-10-18T07:00:34.839Z,3528
2017-10-18T07:01:35.577Z,3460
2017-10-18T07:02:36.327Z,3644
2017-10-18T07:03:37.123Z,3744
2017-10-18T07:04:37.937Z,3848
2017-10-18T07:05:38.878Z,3788
2017-10-18T07:06:39.679Z,3864
2017-10-18T07:07:41.422Z,4016
2017-10-18T07:08:42.450Z,4116
2017-10-18T07:09:43.257Z,4132
2017-10-18T07:10:44.043Z,4196
2017-10-18T07:11:44.861Z,4388
2017-10-18T07:12:45.682Z,4392
2017-10-18T07:13:46.424Z,4352
2017-10-18T07:14:47.236Z,4632
2017-10-18T07:15:47.980Z,4604
2017-10-18T07:16:48.718Z,4700
2017-10-18T07:17:49.473Z,4600
2017-10-18T07:18:50.214Z,4688
2017-10-18T07:19:50.956Z,4996
2017-10-18T07:20:51.807Z,5060
2017-10-18T07:21:52.691Z,5272
2017-10-18T07:22:54.130Z,5204
2017-10-18T07:23:55.100Z,5308
2017-10-18T07:24:55.836Z,5188
2017-10-18T07:25:56.630Z,5348
2017-10-18T07:26:57.381Z,5228
2017-10-18T07:27:58.190Z,5536
2017-10-18T07:28:58.918Z,5612
2017-10-18T07:29:59.659Z,5740
2017-10-18T07:31:00.513Z,5624
2017-10-18T07:32:01.252Z,5852
2017-10-18T07:33:02.066Z,6200
2017-10-18T07:34:02.860Z,6500
2017-10-18T07:35:03.616Z,6524
2017-10-18T07:36:04.762Z,6556
2017-10-18T07:37:05.555Z,6668
2017-10-18T07:38:06.306Z,7132
2017-10-18T07:39:07.128Z,7428
2017-10-18T07:40:07.900Z,6964
2017-10-18T07:41:08.858Z,6848
2017-10-18T07:42:09.597Z,7812
2017-10-18T07:43:10.341Z,7004
2017-10-18T07:44:11.085Z,7556
2017-10-18T07:45:11.861Z,8524
2017-10-18T07:46:12.709Z,8432
2017-10-18T07:47:13.492Z,8300
2017-10-18T07:48:14.236Z,7828
2017-10-18T07:49:14.977Z,8228
2017-10-18T07:50:15.743Z,9068
2017-10-18T07:51:16.952Z,8960
2017-10-18T07:52:17.688Z,8776
2017-10-18T07:53:18.428Z,8236
2017-10-18T07:54:19.174Z,9592
2017-10-18T07:55:19.917Z,9140
2017-10-18T07:56:20.707Z,9128
2017-10-18T07:57:21.457Z,9080
2017-10-18T07:58:22.263Z,9868
2017-10-18T07:59:23.013Z,10060
2017-10-18T08:00:23.835Z,9752
2017-10-18T08:01:24.671Z,9680
2017-10-18T08:02:25.477Z,9812
2017-10-18T08:03:26.250Z,9440
2017-10-18T08:04:26.992Z,9776
2017-10-18T08:05:27.722Z,9640
2017-10-18T08:06:28.467Z,9764
2017-10-18T08:07:29.307Z,10272
2017-10-18T08:08:31.202Z,10424
2017-10-18T08:09:32.297Z,10716
2017-10-18T08:10:33.262Z,10652
2017-10-18T08:11:34.011Z,10596
2017-10-18T08:12:35.211Z,10196
2017-10-18T08:13:35.949Z,10096
2017-10-18T08:14:36.679Z,10572
2017-10-18T08:15:37.499Z,11664
2017-10-18T08:16:38.340Z,12200
2017-10-18T08:17:39.404Z,12600
2017-10-18T08:18:40.197Z,12576
2017-10-18T08:19:40.938Z,12660
2017-10-18T08:20:41.710Z,12492
2017-10-18T08:21:42.454Z,12396
2017-10-18T08:22:43.244Z,11164
2017-10-18T08:23:43.973Z,9472
2017-10-18T08:24:44.718Z,9752
2017-10-18T08:25:45.458Z,10300
2017-10-18T08:26:46.268Z,10608
2017-10-18T08:27:47.349Z,10104
2017-10-18T08:28:48.078Z,11588
2017-10-18T08:29:48.821Z,14096
2017-10-18T08:32:03.836Z,14900
2017-10-18T08:33:04.926Z,13384
2017-10-18T08:34:05.659Z,14016
2017-10-18T08:35:06.401Z,12628
2017-10-18T08:36:07.134Z,13896
2017-10-18T08:37:07.954Z,15948
2017-10-18T08:38:08.762Z,14904
2017-10-18T08:39:09.550Z,14620
2017-10-18T08:40:10.371Z,12304
2017-10-18T08:41:11.068Z,11316
2017-10-18T08:42:11.819Z,12420
2017-10-18T08:43:12.620Z,12156
2017-10-18T08:44:13.362Z,14092
2017-10-18T08:45:14.104Z,14612
2017-10-18T08:46:14.910Z,13132
2017-10-18T08:47:15.731Z,12732
2017-10-18T08:48:16.523Z,13168
2017-10-18T08:49:17.258Z,12556
2017-10-18T08:50:18.076Z,12692
2017-10-18T08:51:18.808Z,15952
2017-10-18T08:52:19.541Z,16216
2017-10-18T08:53:20.367Z,14376
2017-10-18T08:54:21.109Z,14228
2017-10-18T08:55:21.851Z,15400
2017-10-18T08:56:22.646Z,15040
2017-10-18T08:57:23.366Z,15132
2017-10-18T08:58:24.225Z,17952
2017-10-18T08:59:25.029Z,19008
2017-10-18T09:00:25.765Z,18848
2017-10-18T09:01:26.513Z,12960
2017-10-18T09:02:27.247Z,13084
2017-10-18T09:03:28.052Z,16464
2017-10-18T09:04:28.852Z,17464
2017-10-18T09:05:29.598Z,17856
2017-10-18T09:06:30.397Z,16672
2017-10-18T09:07:31.166Z,15496
2017-10-18T09:08:31.943Z,15096
2017-10-18T09:09:32.750Z,15548
2017-10-18T09:10:33.617Z,15920
2017-10-18T09:11:34.349Z,16972
2017-10-18T09:12:35.161Z,16352
2017-10-18T09:13:35.907Z,16456
2017-10-18T09:14:36.722Z,18976
2017-10-18T09:16:51.808Z,22144
2017-10-18T09:17:52.611Z,22112
2017-10-18T09:18:53.398Z,20800
2017-10-18T09:19:54.149Z,19136
2017-10-18T09:20:55.319Z,22656
2017-10-18T09:21:56.121Z,35232
2017-10-18T09:22:56.870Z,31840
2017-10-18T09:23:57.607Z,25888
2017-10-18T09:24:58.358Z,23200
2017-10-18T09:25:59.198Z,23552
2017-10-18T09:27:00.008Z,23296
2017-10-18T09:28:00.750Z,22624
2017-10-18T09:29:01.495Z,21504
2017-10-18T09:30:02.306Z,21120
2017-10-18T09:31:03.096Z,21440
2017-10-18T09:32:03.920Z,21472
2017-10-18T09:33:04.660Z,21024
2017-10-18T09:34:05.393Z,21216
2017-10-18T09:35:06.131Z,21152
2017-10-18T09:36:06.921Z,21248
2017-10-18T09:37:07.657Z,20640
2017-10-18T09:38:08.412Z,19776
2017-10-18T09:39:09.199Z,22528
2017-10-18T09:40:10.017Z,26688
2017-10-18T09:41:10.797Z,35872
2017-10-18T09:42:11.950Z,34656
2017-10-18T09:43:12.762Z,44640
2017-10-18T09:44:13.575Z,44032
2017-10-18T09:45:14.306Z,49600
2017-10-18T09:46:15.061Z,50144
2017-10-18T09:47:15.890Z,50304
2017-10-18T09:48:16.628Z,44928
2017-10-18T09:49:17.436Z,44832
2017-10-18T09:50:18.183Z,45216
2017-10-18T09:51:18.966Z,40928
2017-10-18T09:52:20.074Z,31392
2017-10-18T09:53:20.797Z,27168
2017-10-18T09:54:21.542Z,29376
2017-10-18T09:55:22.335Z,31232
2017-10-18T09:56:23.126Z,31840
2017-10-18T09:57:23.926Z,31360
2017-10-18T09:58:24.686Z,28960
2017-10-18T09:59:25.476Z,23200
2017-10-18T10:00:26.285Z,24800
2017-10-18T10:01:27.071Z,22304
2017-10-18T10:02:27.906Z,20160
2017-10-18T10:03:28.648Z,20256
2017-10-18T10:04:29.466Z,22208
2017-10-18T10:05:30.210Z,22496
2017-10-18T10:06:30.977Z,19968
2017-10-18T10:07:31.861Z,18432
2017-10-18T10:08:32.592Z,18432
2017-10-18T10:09:33.346Z,18752
2017-10-18T10:10:34.147Z,18976
2017-10-18T10:11:34.886Z,17776
2017-10-18T10:12:35.661Z,17988
2017-10-18T10:13:36.491Z,21312
2017-10-18T10:14:37.262Z,24384
2017-10-18T10:15:38.081Z,24128
2017-10-18T10:16:38.823Z,22368
2017-10-18T10:17:39.942Z,19616
2017-10-18T10:18:40.762Z,19840
2017-10-18T10:19:41.515Z,19232
2017-10-18T10:20:42.317Z,19072
2017-10-18T10:21:43.073Z,19168
2017-10-18T10:22:43.957Z,15504
2017-10-18T10:23:44.728Z,16620
2017-10-18T10:24:45.522Z,15516
2017-10-18T10:25:46.334Z,16952
2017-10-18T10:26:47.088Z,16328
2017-10-18T10:27:48.281Z,17808
2017-10-18T10:28:49.018Z,17860
2017-10-18T10:29:49.764Z,16844
2017-10-18T10:30:50.517Z,16344
2017-10-18T10:31:51.313Z,16996
2017-10-18T10:32:52.111Z,17560
2017-10-18T10:33:52.865Z,15424
2017-10-18T10:34:53.678Z,16384
2017-10-18T10:35:54.431Z,20544
2017-10-18T10:36:55.177Z,23968
2017-10-18T10:37:56.051Z,22656
2017-10-18T10:38:56.799Z,21408
2017-10-18T10:39:57.612Z,19552
2017-10-18T10:40:58.348Z,21824
2017-10-18T10:43:13.550Z,26560
2017-10-18T10:44:14.299Z,27872
2017-10-18T10:45:15.120Z,30528
2017-10-18T10:46:15.899Z,29600
2017-10-18T10:47:16.649Z,30208
2017-10-18T10:48:17.530Z,26240
2017-10-18T10:49:18.330Z,24096
2017-10-18T10:50:19.149Z,21568
2017-10-18T10:51:19.908Z,17868
2017-10-18T10:52:20.772Z,17472
2017-10-18T10:53:21.640Z,16140
2017-10-18T10:54:22.472Z,14064
2017-10-18T10:55:23.303Z,13268
2017-10-18T10:56:24.099Z,13192
2017-10-18T10:57:24.910Z,12668
2017-10-18T10:58:25.782Z,13672
2017-10-18T10:59:26.534Z,12520
2017-10-18T11:00:27.338Z,15292
2017-10-18T11:01:28.086Z,15188
2017-10-18T11:02:28.937Z,13228
2017-10-18T11:03:29.711Z,12784
2017-10-18T11:04:30.443Z,10144
2017-10-18T11:05:31.286Z,15852
2017-10-18T11:06:32.087Z,19424
2017-10-18T11:07:32.838Z,17800
2017-10-18T11:08:33.580Z,15684
2017-10-18T11:09:34.321Z,14648
2017-10-18T11:10:35.541Z,14284
2017-10-18T11:11:36.285Z,16572
2017-10-18T11:12:37.021Z,15852
2017-10-18T11:13:37.748Z,14580
2017-10-18T11:14:38.483Z,14264
2017-10-18T11:15:39.356Z,14364
2017-10-18T11:16:40.145Z,14732
2017-10-18T11:17:40.880Z,13356
2017-10-18T11:18:41.641Z,14048
2017-10-18T11:19:42.432Z,13036
2017-10-18T11:20:43.220Z,14588
2017-10-18T11:21:44.036Z,14464
2017-10-18T11:22:44.778Z,13464
2017-10-18T11:23:45.572Z,13812
2017-10-18T11:24:46.388Z,13672
2017-10-18T11:25:47.228Z,13996
2017-10-18T11:26:48.029Z,14976
2017-10-18T11:27:48.862Z,13816
2017-10-18T11:28:49.657Z,12788
2017-10-18T11:29:50.406Z,12208
2017-10-18T11:30:51.165Z,12604
2017-10-18T11:31:51.915Z,13200
2017-10-18T11:32:52.710Z,13240
2017-10-18T11:33:53.463Z,13460
2017-10-18T11:34:54.327Z,13880
2017-10-18T11:35:55.073Z,14904
2017-10-18T11:36:55.807Z,14544
2017-10-18T11:37:56.542Z,16036
2017-10-18T11:38:57.317Z,15748
2017-10-18T11:39:58.106Z,18816
2017-10-18T11:40:58.848Z,21120
2017-10-18T11:41:59.592Z,17920
2017-10-18T11:43:00.452Z,20640
2017-10-18T11:44:01.198Z,23968
2017-10-18T11:45:01.997Z,24800
2017-10-18T11:46:02.742Z,22400
2017-10-18T11:47:03.538Z,17760
2017-10-18T11:48:04.362Z,16276
2017-10-18T11:49:05.212Z,16932
2017-10-18T11:50:06.231Z,17204
2017-10-18T11:51:06.971Z,14928
2017-10-18T11:52:07.703Z,11952
2017-10-18T11:53:08.436Z,12712
2017-10-18T11:54:09.181Z,18112
2017-10-18T11:55:09.964Z,18080
2017-10-18T11:56:10.715Z,17376
2017-10-18T11:57:11.463Z,18272
2017-10-18T11:58:12.274Z,24288
2017-10-18T11:59:13.056Z,25792
2017-10-18T12:00:13.905Z,18176
2017-10-18T12:01:14.707Z,16040
2017-10-18T12:02:15.456Z,13656
2017-10-18T12:03:16.192Z,11536
2017-10-18T12:04:17.031Z,11808
2017-10-18T12:05:17.900Z,13204
2017-10-18T12:06:18.652Z,14684
2017-10-18T12:07:19.468Z,15984
2017-10-18T12:08:20.270Z,13120
2017-10-18T12:09:21.016Z,16288
2017-10-18T12:10:22.166Z,17632
2017-10-18T12:11:23.220Z,19008
2017-10-18T12:12:24.081Z,20832
2017-10-18T12:13:24.831Z,20896
2017-10-18T12:14:25.536Z,20288
2017-10-18T12:15:26.632Z,15384
2017-10-18T12:16:27.383Z,13480
2017-10-18T12:17:28.167Z,13420
2017-10-18T12:18:28.995Z,16340
2017-10-18T12:19:30.231Z,17468
2017-10-18T12:20:31.839Z,19328
2017-10-18T12:21:32.587Z,20544
2017-10-18T12:22:33.292Z,18624
2017-10-18T12:23:34.121Z,18144
2017-10-18T12:24:34.814Z,24448
2017-10-18T12:25:36.349Z,30112
2017-10-18T12:26:37.138Z,31584
2017-10-18T12:27:37.898Z,29440
2017-10-18T12:28:38.661Z,27584
2017-10-18T12:29:39.401Z,21248
2017-10-18T12:30:40.337Z,13828
2017-10-18T12:31:41.191Z,12452
2017-10-18T12:32:43.187Z,13864
2017-10-18T12:33:43.867Z,15996
2017-10-18T12:34:44.697Z,13424
2017-10-18T12:35:45.514Z,11888
2017-10-18T12:36:46.616Z,15132
2017-10-18T12:37:47.649Z,17160
2017-10-18T12:38:48.467Z,16068
2017-10-18T12:39:49.215Z,14916
2017-10-18T12:40:51.756Z,13572
2017-10-18T12:41:53.436Z,13236
2017-10-18T12:42:54.473Z,12408
2017-10-18T12:43:55.346Z,12376
2017-10-18T12:44:56.213Z,14208
2017-10-18T12:45:57.452Z,14840
2017-10-18T12:46:58.260Z,15120
2017-10-18T12:47:59.080Z,13232
2017-10-18T12:48:59.829Z,11172
2017-10-18T12:50:00.625Z,12744
2017-10-18T12:51:01.531Z,11252
2017-10-18T12:52:02.480Z,10556
2017-10-18T12:53:03.208Z,9612
2017-10-18T12:54:03.948Z,9336
2017-10-18T12:55:04.767Z,9196
2017-10-18T12:56:05.714Z,9332
2017-10-18T12:57:06.574Z,9384
2017-10-18T12:58:07.347Z,9208
2017-10-18T12:59:08.108Z,9008
2017-10-18T13:00:08.903Z,9632
2017-10-18T13:01:10.100Z,9744
2017-10-18T13:02:10.825Z,9116
2017-10-18T13:03:11.618Z,9716
2017-10-18T13:04:12.436Z,11100
2017-10-18T13:05:13.204Z,9700
2017-10-18T13:06:14.081Z,11872
2017-10-18T13:07:14.901Z,11612
2017-10-18T13:08:15.646Z,10016
2017-10-18T13:09:16.432Z,9156
2017-10-18T13:10:17.185Z,8220
2017-10-18T13:11:18.045Z,8004
2017-10-18T13:12:18.848Z,7868
2017-10-18T13:13:19.608Z,8272
2017-10-18T13:14:20.422Z,8080
2017-10-18T13:15:21.211Z,7960
2017-10-18T13:16:22.069Z,7952
2017-10-18T13:17:22.887Z,7968
2017-10-18T13:18:23.690Z,7912
2017-10-18T13:19:24.487Z,7840
2017-10-18T13:20:26.362Z,7776
2017-10-18T13:21:27.152Z,7704
2017-10-18T13:22:27.949Z,7628
2017-10-18T13:23:28.704Z,7568
2017-10-18T13:24:29.511Z,7504
2017-10-18T13:25:30.295Z,7508
2017-10-18T13:26:31.221Z,7348
2017-10-18T13:27:32.003Z,7268
2017-10-18T13:28:32.818Z,7280
2017-10-18T13:29:33.557Z,7360
2017-10-18T13:30:34.290Z,7340
2017-10-18T13:31:35.130Z,7108
2017-10-18T13:32:35.872Z,7128
2017-10-18T13:33:36.682Z,7120
2017-10-18T13:34:37.504Z,7036
2017-10-18T13:35:38.275Z,7028
2017-10-18T13:36:39.160Z,7016
2017-10-18T13:37:40.244Z,7000
2017-10-18T13:38:41.004Z,6984
2017-10-18T13:39:41.911Z,6996
2017-10-18T13:40:42.646Z,7008
2017-10-18T13:41:43.512Z,7036
2017-10-18T13:42:44.323Z,7056
2017-10-18T13:43:45.131Z,7044
2017-10-18T13:44:45.876Z,7060
2017-10-18T13:45:46.627Z,7076
2017-10-18T13:46:47.477Z,7164
2017-10-18T13:47:48.303Z,7456
2017-10-18T13:48:49.123Z,7468
2017-10-18T13:49:49.934Z,7368
2017-10-18T13:50:50.723Z,7208
2017-10-18T13:51:51.447Z,7088
2017-10-18T13:52:52.185Z,7152
2017-10-18T13:53:52.927Z,7328
2017-10-18T13:54:53.678Z,7172
2017-10-18T13:55:54.420Z,6884
2017-10-18T13:56:55.241Z,6940
2017-10-18T13:57:55.976Z,7188
2017-10-18T13:58:56.716Z,7092
2017-10-18T13:59:57.532Z,6920